Kuurne, Belgium

12:06 AM CEST on September 01, 2015 (GMT +0200)
Lesquin | | Change Station
CLOSE
Current Station
Airport
Location: Lille,
Elevation: 154 ft
Nearby Weather Stations

Elev 154 ft 50.57 °N, 3.10 °E | Updated 6 minutes ago

Overcast
Overcast
63 °F
Feels Like 63 °F
N
9
Wind Variable Wind from NW

Today
High -- | Low -- °F
--% Chance of Precip.
Yesterday
High -- | Low -- °F
Precip. -- in
6:59 AM 8:33 PM
Waning Gibbous, 93% visible
Pressure 29.89 in
Visibility 6.2 miles
Clouds Scattered Clouds 1100 ft
Overcast 2100 ft
Dew Point 59 °F
Humidity 88%
Rainfall 0.00 in
Snow Depth Not available.
UV 0 out of 12
Pollen Not available.
Air Quality Not available.
Flu Activity Not available.
METAR LFQQ 312200Z AUTO 32008KT 9999 SCT011 OVC021 17/15 Q1012
Pressure 29.89 in
Visibility 6.2 miles
Clouds Scattered Clouds 1100 ft
Overcast 2100 ft
Dew Point 59 °F
Humidity 88%
Rainfall 0.00 in
Snow Depth Not available.
UV 0 out of 12
Pollen Not available.
Air Quality Not available.
Flu Activity Not available.
METAR LFQQ 312200Z AUTO 32008KT 9999 SCT011 OVC021 17/15 Q1012

10-Day Weather Forecast

×

Almanac

Astronomy

Sep. 01, 2015 Rise Set
Actual Time
Civil Twilight
Nautical Twilight
Astronomical Twilight
Moon
Length of Visible Light
Length of Day
Tomorrow will be .
, % of the Moon is Illuminated

Today's Extremes

Country Highs Country Lows

Community

WunderPhotos

Upload Photos

1,851,389 photos uploaded!

WunderBlogs® & News

Nearby

Air Quality

  Air Quality AQ Index Pollutant
Not available.

Snow Depth

Station Depth Elevation

Earthquake Activity

City Distance Mag. Time & Date
Minimum magnitude displayed is 2.5.

Coastal Water Temperatures

Place Temperature

Stations

Nearby Weather Stations

Station Location Temp. Windchill Dew Point Humidity Wind Precip. Elev Updated Type